Time;durP1;ratioP1;P1;durP2;ratioP2;P2;SDS_P1;SDS_P2;PMS_P1;PMS_P2;Temp;Humidity;BMP_temperature;BMP_pressure;BME280_temperature;BME280_humidity;BME280_pressure;Samples;Min_cycle;Max_cycle;Signal;HPM_P1;HPM_P2
2022/06/10 00:01:51;;;;;;;17.85;4.13;;;17.20;72.10;;;;;;5014515;28;20049;-74
2022/06/10 00:04:16;;;;;;;14.73;3.80;;;17.20;72.50;;;;;;5006841;28;20109;-75
2022/06/10 00:06:42;;;;;;;12.52;3.40;;;17.10;72.60;;;;;;5010494;28;20464;-75
2022/06/10 00:09:08;;;;;;;15.80;4.13;;;17.10;73.00;;;;;;5014508;28;20084;-75
2022/06/10 00:11:34;;;;;;;17.13;3.80;;;17.10;72.90;;;;;;5016150;28;20397;-75
2022/06/10 00:14:00;;;;;;;18.02;3.72;;;17.10;73.00;;;;;;5010736;28;20037;-75
2022/06/10 00:16:26;;;;;;;17.30;3.95;;;17.10;73.20;;;;;;5012583;28;20052;-74
2022/06/10 00:18:52;;;;;;;16.05;3.33;;;17.10;73.40;;;;;;5010297;28;20392;-75
2022/06/10 00:21:20;;;;;;;14.48;3.60;;;17.10;73.50;;;;;;5007034;28;20027;-75
2022/06/10 00:23:46;;;;;;;11.80;3.25;;;17.10;73.50;;;;;;5018333;28;20128;-74
2022/06/10 00:26:12;;;;;;;13.43;3.60;;;17.10;73.40;;;;;;5011460;28;20041;-76
2022/06/10 00:28:39;;;;;;;18.83;5.00;;;17.10;73.50;;;;;;5012675;28;20454;-74
2022/06/10 00:31:05;;;;;;;12.30;3.58;;;17.00;73.60;;;;;;5005617;28;20092;-75
2022/06/10 00:33:33;;;;;;;11.95;3.22;;;17.10;73.90;;;;;;5016025;28;20407;-76
2022/06/10 00:35:59;;;;;;;13.30;3.78;;;17.00;74.00;;;;;;5015501;28;20049;-76
2022/06/10 00:38:25;;;;;;;11.45;3.63;;;17.10;73.90;;;;;;5006987;28;20093;-74
2022/06/10 00:40:54;;;;;;;13.75;3.22;;;17.00;74.10;;;;;;5009703;28;20275;-75
2022/06/10 00:43:25;;;;;;;10.57;2.80;;;17.00;74.10;;;;;;5006806;28;20050;-74
2022/06/10 00:46:05;;;;;;;12.85;3.53;;;17.00;74.40;;;;;;5010125;28;20057;-73
2022/06/10 00:48:46;;;;;;;10.18;2.97;;;17.00;74.50;;;;;;5009293;28;20042;-74
2022/06/10 00:51:20;;;;;;;10.95;2.63;;;17.00;74.50;;;;;;5009330;28;20076;-74
2022/06/10 00:53:51;;;;;;;16.30;3.33;;;17.00;74.60;;;;;;5008724;28;20045;-75
2022/06/10 00:56:21;;;;;;;11.40;3.00;;;16.90;74.50;;;;;;5010002;28;20030;-73
2022/06/10 00:58:58;;;;;;;13.13;3.35;;;16.90;74.90;;;;;;5008872;28;20038;-74
2022/06/10 01:01:26;;;;;;;13.60;3.08;;;16.90;74.90;;;;;;5013918;28;20034;-74
2022/06/10 01:03:53;;;;;;;11.75;3.20;;;16.90;75.00;;;;;;5012767;28;20038;-74
2022/06/10 01:06:21;;;;;;;13.70;3.30;;;16.90;75.20;;;;;;5010516;28;20488;-73
2022/06/10 01:08:49;;;;;;;12.45;3.22;;;16.90;75.10;;;;;;5003748;28;20456;-74
2022/06/10 01:11:49;;;;;;;10.90;3.25;;;16.90;75.10;;;;;;5006863;28;20099;-75
2022/06/10 01:14:44;;;;;;;15.70;2.97;;;16.90;75.20;;;;;;5003541;28;20505;-74
2022/06/10 01:17:46;;;;;;;14.63;3.65;;;16.90;75.10;;;;;;5006129;28;20504;-74
2022/06/10 01:20:35;;;;;;;13.15;3.35;;;16.90;75.20;;;;;;5008491;28;20496;-74
2022/06/10 01:23:34;;;;;;;9.55;2.70;;;16.90;75.30;;;;;;4995012;28;20042;-74
2022/06/10 01:26:23;;;;;;;13.43;3.83;;;16.90;75.40;;;;;;5010835;28;20054;-75
2022/06/10 01:29:08;;;;;;;12.32;3.15;;;16.90;75.60;;;;;;5011716;28;20077;-71
2022/06/10 01:31:38;;;;;;;11.38;3.65;;;16.90;75.60;;;;;;5002580;28;20042;-75
2022/06/10 01:34:29;;;;;;;14.32;3.65;;;16.90;75.70;;;;;;5007070;28;20041;-73
2022/06/10 01:37:06;;;;;;;14.30;3.83;;;16.90;75.70;;;;;;5008613;28;20372;-73
2022/06/10 01:39:55;;;;;;;14.55;3.47;;;16.90;75.80;;;;;;5010716;28;20510;-74
2022/06/10 01:42:25;;;;;;;13.15;3.58;;;16.90;75.80;;;;;;4992370;28;20030;-73
2022/06/10 01:45:25;;;;;;;13.18;3.55;;;16.90;75.70;;;;;;5009483;28;20061;-73
2022/06/10 01:48:05;;;;;;;10.10;2.65;;;16.90;75.70;;;;;;5006346;28;20042;-74
2022/06/10 01:51:06;;;;;;;13.35;2.97;;;16.90;75.70;;;;;;5014703;28;20116;-77
2022/06/10 01:53:40;;;;;;;13.95;3.78;;;16.90;75.90;;;;;;4962023;28;20043;-74
2022/06/10 01:56:18;;;;;;;12.65;3.28;;;16.80;75.90;;;;;;5000874;28;20386;-74
2022/06/10 01:58:54;;;;;;;17.45;3.53;;;16.80;76.00;;;;;;5022105;28;20087;-74
2022/06/10 02:01:24;;;;;;;14.27;3.15;;;16.90;75.90;;;;;;5007383;28;20061;-74
2022/06/10 02:04:04;;;;;;;11.45;2.92;;;16.90;76.00;;;;;;5008203;28;20045;-74
2022/06/10 02:06:39;;;;;;;14.43;3.13;;;16.90;75.90;;;;;;5007488;28;20038;-74
2022/06/10 02:09:13;;;;;;;12.40;2.85;;;16.80;76.00;;;;;;5005708;28;20038;-74
2022/06/10 02:11:46;;;;;;;12.95;3.40;;;16.80;76.00;;;;;;5011686;28;20259;-75
2022/06/10 02:14:18;;;;;;;14.77;3.35;;;16.80;76.10;;;;;;5004180;28;20037;-75
2022/06/10 02:16:46;;;;;;;12.93;3.38;;;16.80;76.00;;;;;;5014511;28;20114;-74
2022/06/10 02:19:26;;;;;;;11.90;3.05;;;16.80;75.80;;;;;;5011608;28;20084;-74
2022/06/10 02:21:57;;;;;;;16.75;3.25;;;16.80;75.70;;;;;;5012369;28;20034;-74
2022/06/10 02:24:31;;;;;;;15.05;3.10;;;16.80;75.60;;;;;;5017766;28;20149;-76
2022/06/10 02:27:03;;;;;;;11.77;2.67;;;16.80;75.40;;;;;;5020077;28;20409;-75
2022/06/10 02:29:40;;;;;;;11.52;2.85;;;16.80;75.20;;;;;;5010656;28;20117;-74
2022/06/10 02:32:07;;;;;;;13.75;2.92;;;16.80;75.10;;;;;;5008375;28;20033;-73
2022/06/10 02:34:33;;;;;;;12.75;3.00;;;16.80;74.90;;;;;;5007891;28;20033;-73
2022/06/10 02:37:44;;;;;;;14.70;3.55;;;16.80;75.10;;;;;;5004964;28;20030;-73
2022/06/10 02:40:31;;;;;;;9.88;3.03;;;16.80;74.90;;;;;;4990867;28;20042;-74
2022/06/10 02:43:12;;;;;;;14.05;3.13;;;16.80;74.70;;;;;;4996980;28;20057;-74
2022/06/10 02:45:56;;;;;;;10.90;2.55;;;16.80;74.50;;;;;;5004717;28;20076;-74
2022/06/10 02:48:27;;;;;;;15.23;3.43;;;16.90;74.30;;;;;;5010042;28;20088;-74
2022/06/10 02:50:53;;;;;;;12.85;2.83;;;16.80;74.20;;;;;;5023131;28;20099;-75
2022/06/10 02:53:19;;;;;;;9.70;2.55;;;16.80;74.20;;;;;;5012177;28;20440;-74
2022/06/10 02:55:44;;;;;;;9.93;2.95;;;16.80;74.10;;;;;;5017184;28;20056;-74
2022/06/10 03:01:13;;;;;;;7.90;2.63;;;16.90;74.10;;;;;;5010126;28;20064;-75
2022/06/10 03:03:57;;;;;;;16.53;3.47;;;16.80;73.90;;;;;;5004052;28;20069;-74
2022/06/10 03:06:37;;;;;;;15.93;3.47;;;16.80;73.90;;;;;;5012574;28;20034;-75
2022/06/10 03:09:15;;;;;;;10.82;2.78;;;16.80;74.10;;;;;;5007036;28;20121;-74
2022/06/10 03:12:02;;;;;;;13.98;3.17;;;16.80;74.00;;;;;;5013367;28;20033;-75
2022/06/10 03:15:05;;;;;;;17.02;3.60;;;16.80;73.90;;;;;;5006884;28;20045;-74
2022/06/10 03:17:43;;;;;;;17.73;3.65;;;16.90;74.00;;;;;;5006538;28;20045;-74
2022/06/10 03:20:15;;;;;;;14.57;4.28;;;17.00;73.90;;;;;;5008351;28;20049;-74
2022/06/10 03:23:14;;;;;;;12.57;3.58;;;16.90;74.00;;;;;;5003585;28;20030;-74
2022/06/10 03:25:43;;;;;;;11.10;3.38;;;16.90;73.90;;;;;;5019244;28;20049;-74
2022/06/10 03:28:15;;;;;;;12.43;3.65;;;16.90;74.10;;;;;;5002970;28;20062;-74
2022/06/10 03:30:53;;;;;;;13.50;3.55;;;16.90;73.90;;;;;;4998306;28;20191;-72
2022/06/10 03:33:40;;;;;;;15.43;4.07;;;16.90;74.00;;;;;;4999503;28;20049;-72
2022/06/10 03:36:21;;;;;;;8.95;2.85;;;16.90;73.70;;;;;;5017060;28;20669;-75
2022/06/10 03:38:49;;;;;;;14.13;3.97;;;16.90;73.70;;;;;;5007377;28;20065;-74
2022/06/10 03:41:58;;;;;;;13.77;3.50;;;16.90;73.70;;;;;;4998538;28;20030;-74
2022/06/10 03:44:25;;;;;;;12.60;3.53;;;16.90;73.90;;;;;;4996602;28;20046;-74
2022/06/10 03:46:53;;;;;;;11.85;3.85;;;16.90;73.80;;;;;;5008949;28;20128;-74
2022/06/10 03:49:23;;;;;;;15.40;3.78;;;16.90;73.90;;;;;;5005367;28;20038;-75
2022/06/10 03:51:50;;;;;;;13.13;4.03;;;16.90;73.90;;;;;;5007189;28;20799;-74
2022/06/10 03:54:18;;;;;;;12.63;3.38;;;16.90;73.70;;;;;;5000280;28;20037;-75
2022/06/10 03:56:44;;;;;;;15.73;3.97;;;17.00;73.80;;;;;;5009849;28;20038;-74
2022/06/10 03:59:10;;;;;;;11.73;3.38;;;16.90;73.90;;;;;;5007933;28;20442;-74
2022/06/10 04:01:36;;;;;;;16.08;3.50;;;17.00;73.90;;;;;;5004809;28;20062;-74
2022/06/10 04:04:03;;;;;;;14.98;3.88;;;17.00;73.80;;;;;;5007833;28;20070;-74
2022/06/10 04:06:28;;;;;;;12.23;3.53;;;17.00;73.80;;;;;;5014846;28;20413;-73
2022/06/10 04:08:54;;;;;;;12.77;3.30;;;17.00;73.50;;;;;;5015787;28;20451;-73
2022/06/10 04:11:20;;;;;;;14.80;3.80;;;17.00;73.50;;;;;;5016064;28;22821;-75
2022/06/10 04:13:46;;;;;;;12.40;3.25;;;17.10;73.40;;;;;;5011008;28;20030;-74
2022/06/10 04:16:13;;;;;;;13.00;3.55;;;17.10;73.50;;;;;;5003713;28;20394;-76
2022/06/10 04:18:38;;;;;;;14.00;3.30;;;17.00;73.70;;;;;;5015124;28;20421;-75
2022/06/10 04:21:06;;;;;;;11.38;3.15;;;17.10;73.60;;;;;;5017139;28;20046;-75
2022/06/10 04:23:32;;;;;;;13.57;3.40;;;17.00;73.50;;;;;;5009524;28;20048;-75
2022/06/10 04:25:58;;;;;;;16.38;3.70;;;17.10;73.60;;;;;;4999033;28;20074;-74
2022/06/10 04:28:24;;;;;;;12.50;3.22;;;17.10;73.60;;;;;;4991346;28;20132;-74
2022/06/10 04:30:51;;;;;;;13.50;3.30;;;17.10;73.80;;;;;;4993976;28;20040;-73
2022/06/10 04:33:18;;;;;;;12.82;3.42;;;17.00;73.90;;;;;;4993093;28;20141;-74
2022/06/10 04:35:45;;;;;;;13.20;3.75;;;17.10;73.90;;;;;;4995506;28;20073;-75
2022/06/10 04:38:14;;;;;;;11.10;3.60;;;17.10;73.90;;;;;;4992755;28;20046;-74
2022/06/10 04:40:41;;;;;;;13.43;3.60;;;17.10;73.90;;;;;;4998257;28;20452;-75
2022/06/10 04:43:07;;;;;;;11.80;3.72;;;17.10;73.90;;;;;;4996017;28;20045;-74
2022/06/10 04:45:47;;;;;;;11.05;3.25;;;17.10;73.80;;;;;;5000581;28;20033;-73
2022/06/10 04:48:14;;;;;;;11.57;3.50;;;17.10;73.80;;;;;;4991068;28;20046;-74
2022/06/10 04:50:41;;;;;;;14.75;3.50;;;17.10;73.90;;;;;;4999288;28;20061;-74
2022/06/10 04:53:07;;;;;;;15.88;4.55;;;17.20;73.70;;;;;;5006370;28;20482;-74
2022/06/10 04:55:33;;;;;;;14.05;3.72;;;17.20;73.70;;;;;;4996196;28;20465;-75
2022/06/10 04:57:58;;;;;;;13.00;3.28;;;17.20;73.60;;;;;;5005701;28;20038;-75
2022/06/10 05:00:31;;;;;;;12.55;3.75;;;17.20;73.70;;;;;;5003676;28;21382;-75
2022/06/10 05:02:58;;;;;;;14.07;3.70;;;17.20;73.80;;;;;;5002500;28;20047;-76
2022/06/10 05:05:25;;;;;;;11.48;3.42;;;17.20;73.80;;;;;;4998806;28;20038;-74
2022/06/10 05:07:50;;;;;;;10.88;3.28;;;17.20;73.70;;;;;;5002109;28;20125;-74
2022/06/10 05:10:17;;;;;;;15.10;4.13;;;17.20;73.90;;;;;;4997814;28;20038;-74
2022/06/10 05:12:44;;;;;;;15.75;3.50;;;17.20;73.90;;;;;;4998966;28;20336;-74
2022/06/10 05:15:15;;;;;;;10.75;3.08;;;17.30;73.80;;;;;;4993807;28;20375;-76
2022/06/10 05:17:41;;;;;;;12.10;3.25;;;17.30;74.00;;;;;;4996693;28;20037;-76
2022/06/10 05:20:11;;;;;;;10.95;3.55;;;17.30;73.90;;;;;;4999666;28;20081;-73
2022/06/10 05:22:36;;;;;;;14.63;3.60;;;17.40;73.70;;;;;;4996300;28;20058;-72
2022/06/10 05:25:03;;;;;;;12.00;2.95;;;17.30;73.70;;;;;;5001081;28;20126;-75
2022/06/10 05:27:28;;;;;;;10.55;3.20;;;17.40;73.80;;;;;;5000200;28;20140;-76
2022/06/10 05:29:54;;;;;;;12.63;3.60;;;17.30;73.80;;;;;;5001578;28;20462;-73
2022/06/10 05:32:20;;;;;;;14.70;3.22;;;17.30;73.90;;;;;;5006479;28;20124;-75
2022/06/10 05:34:46;;;;;;;14.70;3.70;;;17.40;74.20;;;;;;5003686;28;20128;-74
2022/06/10 05:37:20;;;;;;;11.45;3.53;;;17.40;74.20;;;;;;5002521;28;20088;-74
2022/06/10 05:39:46;;;;;;;14.30;3.90;;;17.40;74.20;;;;;;4992678;28;20045;-74
2022/06/10 05:42:12;;;;;;;13.23;3.70;;;17.40;74.20;;;;;;5004717;28;20058;-74
2022/06/10 05:44:46;;;;;;;14.00;4.20;;;17.40;74.10;;;;;;5001677;28;20489;-75
2022/06/10 05:47:16;;;;;;;10.45;2.85;;;17.40;74.00;;;;;;5003619;28;20042;-74
2022/06/10 05:49:46;;;;;;;13.77;3.45;;;17.40;74.10;;;;;;5001833;28;20044;-74
2022/06/10 05:52:13;;;;;;;12.07;3.78;;;17.40;74.30;;;;;;4998888;28;20056;-74
2022/06/10 05:54:42;;;;;;;15.65;3.90;;;17.50;74.30;;;;;;5002895;28;20038;-75
2022/06/10 05:57:09;;;;;;;11.73;3.25;;;17.40;74.40;;;;;;5017237;28;20042;-75
2022/06/10 05:59:34;;;;;;;12.70;3.60;;;17.50;74.50;;;;;;5012450;28;20040;-74
2022/06/10 06:02:02;;;;;;;12.07;3.80;;;17.50;74.50;;;;;;5005452;28;20034;-74
2022/06/10 06:04:28;;;;;;;10.18;3.20;;;17.50;74.60;;;;;;4998534;28;20058;-74
2022/06/10 06:06:54;;;;;;;11.18;3.55;;;17.50;74.80;;;;;;5001637;28;20040;-74
2022/06/10 06:09:20;;;;;;;13.15;3.53;;;17.60;74.80;;;;;;5009851;28;20096;-73
2022/06/10 06:11:48;;;;;;;9.38;3.65;;;17.60;74.80;;;;;;5019765;28;20104;-73
2022/06/10 06:14:14;;;;;;;13.27;3.10;;;17.70;74.30;;;;;;4997876;28;20050;-73
2022/06/10 06:16:41;;;;;;;12.38;3.47;;;17.80;74.30;;;;;;5000415;28;20473;-73
2022/06/10 06:19:06;;;;;;;9.45;3.17;;;17.80;74.10;;;;;;5006156;28;20029;-71
2022/06/10 06:21:32;;;;;;;13.45;3.85;;;18.00;73.70;;;;;;5007344;28;20038;-74
2022/06/10 06:23:59;;;;;;;8.43;3.08;;;18.10;73.60;;;;;;5007830;28;20125;-76
2022/06/10 06:26:25;;;;;;;15.15;3.72;;;18.10;73.30;;;;;;4998049;28;20121;-73
2022/06/10 06:28:50;;;;;;;13.38;3.22;;;18.20;73.10;;;;;;5004119;28;20045;-73
2022/06/10 06:31:16;;;;;;;12.43;3.83;;;18.30;73.40;;;;;;5002833;28;20050;-73
2022/06/10 06:33:42;;;;;;;11.15;3.35;;;18.40;73.00;;;;;;5004724;28;20057;-74
2022/06/10 06:36:15;;;;;;;11.73;3.88;;;18.40;72.60;;;;;;5011755;28;20519;-74
2022/06/10 06:38:41;;;;;;;12.52;4.13;;;18.60;72.90;;;;;;5001987;28;20097;-73
2022/06/10 06:41:06;;;;;;;13.15;4.03;;;18.70;72.00;;;;;;5009981;28;20033;-73
2022/06/10 06:43:32;;;;;;;14.13;3.55;;;18.80;71.80;;;;;;5001948;28;20044;-75
2022/06/10 06:45:58;;;;;;;11.38;2.95;;;19.00;71.30;;;;;;5001636;28;20035;-73
2022/06/10 06:48:23;;;;;;;13.30;3.65;;;19.20;71.30;;;;;;4997842;28;20038;-74
2022/06/10 06:50:50;;;;;;;16.25;3.60;;;19.20;70.70;;;;;;5017974;28;20481;-74
2022/06/10 06:53:17;;;;;;;10.70;2.95;;;19.30;70.70;;;;;;4997013;28;20045;-73
2022/06/10 06:55:44;;;;;;;15.60;3.72;;;19.30;70.60;;;;;;5006220;28;20513;-73
2022/06/10 06:58:13;;;;;;;13.10;3.75;;;19.20;70.90;;;;;;5000983;28;20041;-73
2022/06/10 07:00:39;;;;;;;12.88;3.67;;;19.40;70.10;;;;;;5001745;28;20033;-73
2022/06/10 07:03:05;;;;;;;12.00;3.63;;;19.50;70.00;;;;;;4998035;28;20402;-74
2022/06/10 07:05:31;;;;;;;11.82;3.47;;;19.60;70.30;;;;;;5005548;28;20469;-73
2022/06/10 07:07:57;;;;;;;14.65;4.53;;;19.80;69.70;;;;;;5008857;28;20462;-74
2022/06/10 07:10:24;;;;;;;12.75;3.25;;;20.20;69.40;;;;;;4995640;28;20034;-75
2022/06/10 07:12:50;;;;;;;17.67;3.88;;;20.50;68.00;;;;;;4999370;28;20073;-73
2022/06/10 07:15:17;;;;;;;11.43;3.35;;;20.80;66.70;;;;;;5008605;28;20425;-75
2022/06/10 07:17:43;;;;;;;12.57;3.40;;;21.10;65.60;;;;;;5007753;28;20088;-74
2022/06/10 07:20:16;;;;;;;11.38;3.38;;;21.40;65.40;;;;;;5002047;28;20034;-74
2022/06/10 07:22:42;;;;;;;11.10;3.58;;;21.50;64.70;;;;;;4996070;28;20121;-73
2022/06/10 07:25:08;;;;;;;12.75;3.70;;;21.50;64.00;;;;;;4999920;28;20062;-73
2022/06/10 07:27:33;;;;;;;12.90;4.28;;;21.80;63.90;;;;;;4988282;28;20049;-74
2022/06/10 07:29:59;;;;;;;14.20;3.50;;;21.90;63.40;;;;;;5000691;28;20031;-72
2022/06/10 07:32:25;;;;;;;11.85;3.60;;;21.70;63.90;;;;;;5001067;28;20549;-72
2022/06/10 07:34:51;;;;;;;12.15;3.97;;;21.80;64.10;;;;;;5006606;28;20045;-72
2022/06/10 07:37:17;;;;;;;11.27;3.22;;;22.00;63.60;;;;;;4999627;28;20088;-74
2022/06/10 07:39:42;;;;;;;14.13;3.75;;;22.00;63.60;;;;;;5010331;28;20047;-74
2022/06/10 07:42:08;;;;;;;7.40;2.60;;;21.70;64.00;;;;;;5004995;28;20413;-74
2022/06/10 07:44:36;;;;;;;11.02;3.53;;;21.30;65.40;;;;;;5010540;28;20461;-73
2022/06/10 07:47:08;;;;;;;11.82;3.25;;;21.10;66.20;;;;;;5005580;28;20087;-74
2022/06/10 07:49:34;;;;;;;12.35;3.20;;;21.10;66.60;;;;;;5006715;28;20044;-71
2022/06/10 07:52:01;;;;;;;10.50;3.05;;;21.10;67.30;;;;;;5008730;28;20033;-73
2022/06/10 07:54:26;;;;;;;7.63;2.92;;;21.60;65.70;;;;;;5001836;28;20473;-72
2022/06/10 07:56:53;;;;;;;8.93;2.60;;;22.00;65.00;;;;;;4993547;28;20077;-73
2022/06/10 07:59:19;;;;;;;9.55;3.35;;;22.20;63.90;;;;;;5004311;28;20461;-72
2022/06/10 08:01:44;;;;;;;11.05;3.45;;;21.80;64.20;;;;;;5003692;28;20731;-74
2022/06/10 08:04:10;;;;;;;10.63;3.53;;;21.50;64.90;;;;;;5004455;28;20047;-73
2022/06/10 08:06:42;;;;;;;11.48;3.20;;;21.60;64.90;;;;;;5002863;28;20480;-74
2022/06/10 08:09:08;;;;;;;9.90;3.22;;;21.80;65.60;;;;;;5005560;28;20425;-74
2022/06/10 08:11:36;;;;;;;12.73;3.50;;;22.10;65.10;;;;;;5014342;28;20040;-72
2022/06/10 08:14:03;;;;;;;10.63;3.13;;;22.30;64.10;;;;;;5004626;28;20029;-73
2022/06/10 08:16:29;;;;;;;10.90;3.30;;;22.60;64.50;;;;;;4995234;28;20045;-74
2022/06/10 08:18:55;;;;;;;13.50;3.78;;;22.90;62.20;;;;;;5006597;28;20022;-73
2022/06/10 08:24:06;;;;;;;;;;;23.30;60.70;;;;;;4997898;28;20126;-74
2022/06/10 08:26:33;;;;;;;11.48;2.97;;;23.30;60.10;;;;;;4995055;28;19928;-73
2022/06/10 08:29:00;;;;;;;9.32;3.05;;;23.60;59.80;;;;;;4999936;28;20037;-73
2022/06/10 08:31:27;;;;;;;8.98;3.10;;;23.70;58.70;;;;;;5002029;28;20048;-74
2022/06/10 08:33:52;;;;;;;10.60;3.08;;;23.60;58.40;;;;;;5011489;28;20041;-73
2022/06/10 08:36:18;;;;;;;10.70;3.60;;;22.70;60.90;;;;;;5014606;28;20089;-73
2022/06/10 08:38:44;;;;;;;11.10;2.97;;;22.70;62.00;;;;;;5017832;28;20038;-74
2022/06/10 08:41:32;;;;;;;9.43;3.72;;;22.70;61.90;;;;;;5006705;28;20044;-74
2022/06/10 08:44:10;;;;;;;7.60;3.38;;;22.60;63.20;;;;;;5000677;28;20038;-74
2022/06/10 08:47:03;;;;;;;11.20;3.15;;;23.00;62.10;;;;;;5003513;28;20433;-75
2022/06/10 08:49:56;;;;;;;9.70;3.60;;;23.50;61.20;;;;;;4996457;28;20056;-74
2022/06/10 08:52:38;;;;;;;11.07;3.33;;;23.70;59.20;;;;;;5013408;28;20026;-74
2022/06/10 08:55:33;;;;;;;11.38;3.28;;;23.90;59.40;;;;;;5001962;28;20100;-74
2022/06/10 08:58:09;;;;;;;11.68;3.22;;;24.10;59.70;;;;;;4993540;28;20044;-74
2022/06/10 09:00:40;;;;;;;7.53;2.90;;;24.10;57.60;;;;;;5005416;28;20478;-73
2022/06/10 09:03:28;;;;;;;9.50;3.13;;;23.80;59.60;;;;;;5000877;28;20049;-74
2022/06/10 09:05:59;;;;;;;9.40;3.20;;;23.70;59.10;;;;;;5004129;28;20105;-73
2022/06/10 09:08:47;;;;;;;7.43;2.60;;;23.80;60.40;;;;;;5006907;28;20111;-74
2022/06/10 09:11:16;;;;;;;6.57;2.45;;;23.90;58.90;;;;;;5003563;28;20036;-74
2022/06/10 09:14:04;;;;;;;8.73;3.20;;;24.10;58.10;;;;;;5007315;28;20129;-73
2022/06/10 09:16:41;;;;;;;7.30;2.65;;;24.10;57.80;;;;;;5002557;28;20037;-73
2022/06/10 09:19:07;;;;;;;7.60;2.60;;;23.80;58.70;;;;;;5004921;28;20944;-73
2022/06/10 09:21:56;;;;;;;7.88;2.40;;;23.80;59.30;;;;;;5001727;28;20036;-74
2022/06/10 09:24:43;;;;;;;7.88;2.78;;;24.00;58.70;;;;;;5000544;28;20100;-74
2022/06/10 09:27:20;;;;;;;10.77;2.88;;;24.20;57.90;;;;;;5004168;28;20092;-74
2022/06/10 09:29:47;;;;;;;9.27;2.92;;;24.40;58.70;;;;;;5008459;28;20430;-73
2022/06/10 09:32:35;;;;;;;8.60;2.60;;;24.60;57.30;;;;;;5005543;28;20029;-75
2022/06/10 09:35:16;;;;;;;8.70;2.70;;;24.70;57.20;;;;;;4998564;28;20096;-76
2022/06/10 09:38:06;;;;;;;7.35;2.67;;;24.80;56.20;;;;;;5009337;28;20492;-75
2022/06/10 09:40:38;;;;;;;8.93;2.72;;;24.80;56.00;;;;;;4995831;28;20303;-74
2022/06/10 09:43:07;;;;;;;8.25;2.92;;;25.00;55.50;;;;;;4995802;28;20042;-74
2022/06/10 09:45:41;;;;;;;9.18;2.70;;;24.60;56.10;;;;;;5023226;28;20589;-74
2022/06/10 09:48:26;;;;;;;14.55;3.30;;;24.60;56.60;;;;;;4999719;28;20030;-75
2022/06/10 09:51:01;;;;;;;7.60;2.70;;;24.80;56.50;;;;;;5002891;28;20040;-74
2022/06/10 09:53:49;;;;;;;11.02;3.08;;;25.30;56.10;;;;;;5007202;28;20065;-77
2022/06/10 09:56:38;;;;;;;6.30;2.72;;;25.80;54.90;;;;;;5001164;28;20046;-74
2022/06/10 09:59:32;;;;;;;7.72;2.88;;;25.60;54.70;;;;;;5005027;28;20045;-74
2022/06/10 10:02:35;;;;;;;10.50;2.75;;;25.40;54.70;;;;;;5004045;28;20038;-74
2022/06/10 10:05:07;;;;;;;8.52;3.15;;;25.10;55.60;;;;;;5000836;28;20049;-74
2022/06/10 10:07:52;;;;;;;8.27;2.90;;;24.80;56.20;;;;;;5007081;28;20049;-75
2022/06/10 10:10:45;;;;;;;7.18;2.92;;;24.40;57.10;;;;;;5012792;28;20038;-73
2022/06/10 10:13:35;;;;;;;7.63;2.58;;;24.00;58.70;;;;;;5006149;28;20057;-73
2022/06/10 10:16:13;;;;;;;8.18;2.47;;;23.70;59.20;;;;;;5004897;28;20042;-74
2022/06/10 10:18:43;;;;;;;8.38;2.70;;;23.50;58.90;;;;;;4994775;28;20049;-74
2022/06/10 10:21:20;;;;;;;9.77;2.75;;;23.50;59.20;;;;;;5010094;28;20501;-75
2022/06/10 10:23:49;;;;;;;8.23;2.63;;;23.40;60.00;;;;;;5002392;28;20046;-73
2022/06/10 10:26:35;;;;;;;7.15;2.90;;;23.30;60.10;;;;;;4998392;28;20053;-74
2022/06/10 10:29:05;;;;;;;8.07;2.95;;;23.30;61.00;;;;;;4991118;28;20104;-74
2022/06/10 10:31:38;;;;;;;8.55;2.47;;;23.30;60.30;;;;;;5001150;28;20041;-75
2022/06/10 10:34:05;;;;;;;7.63;2.85;;;23.20;60.50;;;;;;5007529;28;20029;-76
2022/06/10 10:36:49;;;;;;;9.23;2.45;;;23.20;60.60;;;;;;4998333;28;20389;-76
2022/06/10 10:39:30;;;;;;;10.15;3.30;;;23.30;61.10;;;;;;5001614;28;20026;-76
2022/06/10 10:42:04;;;;;;;7.05;2.65;;;23.20;61.20;;;;;;5008811;28;20037;-74
2022/06/10 10:44:38;;;;;;;8.38;3.03;;;23.30;61.20;;;;;;5006605;28;20045;-73
2022/06/10 10:47:09;;;;;;;7.65;2.55;;;23.50;60.60;;;;;;5008234;28;20041;-73
2022/06/10 10:49:40;;;;;;;8.35;3.17;;;24.10;60.20;;;;;;5008951;28;20064;-72
2022/06/10 10:52:39;;;;;;;9.45;2.83;;;24.70;57.60;;;;;;5000783;28;20073;-74
2022/06/10 10:55:11;;;;;;;7.63;2.80;;;25.30;56.90;;;;;;4993522;28;20045;-74
2022/06/10 10:58:04;;;;;;;10.20;2.55;;;25.60;54.50;;;;;;5001208;28;20033;-75
2022/06/10 11:00:41;;;;;;;7.47;2.40;;;26.10;52.60;;;;;;4994726;28;20133;-74
2022/06/10 11:03:30;;;;;;;9.00;2.60;;;25.60;53.20;;;;;;5006133;28;20045;-74
2022/06/10 11:05:59;;;;;;;8.88;2.70;;;25.20;54.90;;;;;;5009607;28;20369;-77
2022/06/10 11:08:29;;;;;;;10.70;3.40;;;24.80;55.70;;;;;;5008962;28;20052;-74
2022/06/10 11:11:01;;;;;;;7.20;2.47;;;24.40;56.90;;;;;;5014876;28;20397;-73
2022/06/10 11:13:46;;;;;;;8.68;3.00;;;24.10;57.30;;;;;;5006067;28;20100;-72
2022/06/10 11:16:17;;;;;;;9.88;2.80;;;24.10;58.10;;;;;;5000226;28;20121;-74
2022/06/10 11:18:46;;;;;;;9.77;2.80;;;24.10;58.60;;;;;;5004792;28;20627;-73
2022/06/10 11:21:12;;;;;;;7.18;2.35;;;24.20;58.20;;;;;;5010210;28;20469;-73
2022/06/10 11:23:52;;;;;;;8.45;2.42;;;24.30;56.70;;;;;;4996184;28;20030;-74
2022/06/10 11:26:21;;;;;;;10.73;3.33;;;24.50;56.90;;;;;;5004368;28;20074;-74
2022/06/10 11:28:49;;;;;;;11.38;2.58;;;24.90;56.00;;;;;;5002438;28;20060;-76
2022/06/10 11:31:38;;;;;;;7.10;2.53;;;25.10;54.80;;;;;;4987005;28;20046;-73
2022/06/10 11:34:05;;;;;;;10.50;2.88;;;25.00;54.60;;;;;;5001016;28;20053;-74
2022/06/10 11:36:44;;;;;;;9.77;2.50;;;25.10;55.40;;;;;;4994612;28;20041;-73
2022/06/10 11:39:35;;;;;;;12.35;2.40;;;25.10;54.20;;;;;;4999696;28;20022;-73
2022/06/10 11:42:16;;;;;;;8.77;2.10;;;25.00;54.30;;;;;;4994557;28;20794;-75
2022/06/10 11:45:03;;;;;;;10.48;2.42;;;24.50;54.50;;;;;;4997924;28;20477;-73
2022/06/10 11:47:43;;;;;;;8.50;2.08;;;24.30;55.20;;;;;;5000656;28;20042;-75
2022/06/10 11:50:46;;;;;;;7.03;2.05;;;24.10;56.00;;;;;;4999407;28;20088;-73
2022/06/10 11:53:20;;;;;;;8.73;2.30;;;24.30;56.10;;;;;;4998284;28;20046;-73
2022/06/10 11:59:42;;;;;;;8.37;2.53;;;24.50;56.30;;;;;;5006099;28;20037;-72
2022/06/10 12:01:28;;;;;;;7.95;2.25;;;25.10;55.40;;;;;;5008443;28;20057;-73
2022/06/10 12:04:00;;;;;;;9.40;2.65;;;25.20;54.40;;;;;;5003828;28;20046;-72
2022/06/10 12:06:50;;;;;;;7.82;2.38;;;25.30;54.30;;;;;;5007774;28;20038;-73
2022/06/10 12:09:40;;;;;;;11.27;2.40;;;25.20;53.90;;;;;;5013560;28;20385;-74
2022/06/10 12:12:20;;;;;;;7.63;2.20;;;25.30;54.50;;;;;;5008347;28;20042;-74
2022/06/10 12:14:55;;;;;;;9.38;2.15;;;25.20;54.30;;;;;;5013272;28;20036;-73
2022/06/10 12:17:35;;;;;;;7.97;2.33;;;25.30;54.00;;;;;;5008582;28;20105;-73
2022/06/10 12:20:19;;;;;;;7.13;2.17;;;25.20;53.30;;;;;;5010354;28;20041;-73
2022/06/10 12:22:45;;;;;;;9.30;2.65;;;25.10;54.20;;;;;;5013491;28;20046;-75
2022/06/10 12:25:18;;;;;;;7.82;2.30;;;25.10;54.40;;;;;;5009049;28;20080;-77
2022/06/10 12:27:52;;;;;;;7.78;2.22;;;25.30;53.50;;;;;;5006889;28;20073;-73
2022/06/10 12:30:25;;;;;;;8.77;2.20;;;25.20;53.70;;;;;;5008420;28;20038;-74
2022/06/10 12:33:15;;;;;;;10.75;2.42;;;25.20;53.50;;;;;;5020283;28;20099;-73
2022/06/10 12:35:43;;;;;;;11.07;2.03;;;25.00;54.10;;;;;;5002368;28;20034;-74
2022/06/10 12:38:34;;;;;;;12.27;2.53;;;24.70;54.40;;;;;;4999629;28;20042;-74
2022/06/10 12:41:14;;;;;;;10.40;2.40;;;24.60;54.60;;;;;;5003232;28;20038;-74
2022/06/10 12:43:48;;;;;;;7.03;2.35;;;24.10;55.70;;;;;;5008062;28;20163;-76
2022/06/10 12:46:44;;;;;;;9.85;2.40;;;23.80;56.00;;;;;;5003900;28;20041;-75
2022/06/10 12:49:46;;;;;;;5.78;1.98;;;23.60;56.50;;;;;;5001762;28;20034;-74
2022/06/10 12:52:19;;;;;;;7.38;2.05;;;23.50;57.20;;;;;;4991045;28;20446;-74
2022/06/10 12:54:53;;;;;;;8.15;2.50;;;23.40;57.80;;;;;;5003108;28;20038;-74
2022/06/10 12:57:22;;;;;;;14.23;3.03;;;23.40;58.50;;;;;;4995915;28;20038;-75
2022/06/10 12:59:48;;;;;;;12.15;2.50;;;23.50;58.60;;;;;;5001919;28;20041;-75
2022/06/10 13:02:43;;;;;;;7.07;2.17;;;23.60;59.10;;;;;;4996456;28;20251;-76
2022/06/10 13:05:32;;;;;;;9.52;2.38;;;23.70;58.10;;;;;;5004226;28;20048;-74
2022/06/10 13:07:59;;;;;;;7.15;2.38;;;23.70;58.30;;;;;;4999836;28;20033;-74
2022/06/10 13:10:33;;;;;;;7.07;2.05;;;24.00;58.40;;;;;;5014422;28;20038;-73
2022/06/10 13:13:22;;;;;;;6.25;2.17;;;24.10;57.90;;;;;;5008071;28;20033;-74
2022/06/10 13:15:53;;;;;;;10.07;2.55;;;24.50;57.40;;;;;;4991974;28;20038;-72
2022/06/10 13:18:25;;;;;;;7.82;2.38;;;24.80;56.10;;;;;;5007611;28;20030;-75
2022/06/10 13:20:51;;;;;;;4.90;2.00;;;24.90;54.60;;;;;;4999132;28;20480;-76
2022/06/10 13:23:26;;;;;;;5.78;2.13;;;24.90;54.50;;;;;;5006509;28;20050;-74